sensor_id;sensor_type;location;lat;lon;timestamp;pressure;altitude;pressure_sealevel;temperature;humidity
70198;BME280;57582;-34.876;138.628;2024-02-21T00:02:29;100278;;;33.37;24.90
70198;BME280;57582;-34.876;138.628;2024-02-21T00:05:32;100288;;;33.59;24.78
70198;BME280;57582;-34.876;138.628;2024-02-21T00:08:29;100273;;;33.81;24.13
70198;BME280;57582;-34.876;138.628;2024-02-21T00:11:29;100276;;;33.93;23.75
70198;BME280;57582;-34.876;138.628;2024-02-21T00:14:29;100276;;;34.05;23.58
70198;BME280;57582;-34.876;138.628;2024-02-21T00:17:31;100276;;;34.19;23.40
70198;BME280;57582;-34.876;138.628;2024-02-21T00:20:29;100269;;;34.30;23.11
70198;BME280;57582;-34.876;138.628;2024-02-21T00:23:29;100274;;;34.33;23.25
70198;BME280;57582;-34.876;138.628;2024-02-21T00:26:29;100267;;;34.43;22.52
70198;BME280;57582;-34.876;138.628;2024-02-21T00:29:31;100261;;;34.51;21.21
70198;BME280;57582;-34.876;138.628;2024-02-21T00:32:29;100262;;;34.53;21.55
70198;BME280;57582;-34.876;138.628;2024-02-21T00:35:29;100267;;;34.77;21.57
70198;BME280;57582;-34.876;138.628;2024-02-21T00:38:29;100259;;;35.00;19.89
70198;BME280;57582;-34.876;138.628;2024-02-21T00:41:31;100251;;;35.07;19.33
70198;BME280;57582;-34.876;138.628;2024-02-21T00:44:29;100249;;;35.18;18.67
70198;BME280;57582;-34.876;138.628;2024-02-21T00:47:29;100248;;;35.28;18.38
70198;BME280;57582;-34.876;138.628;2024-02-21T00:50:29;100246;;;35.33;18.18
70198;BME280;57582;-34.876;138.628;2024-02-21T00:53:32;100245;;;35.47;18.49
70198;BME280;57582;-34.876;138.628;2024-02-21T00:56:29;100234;;;35.60;18.63
70198;BME280;57582;-34.876;138.628;2024-02-21T00:59:29;100235;;;35.74;18.31
70198;BME280;57582;-34.876;138.628;2024-02-21T01:02:29;100236;;;35.89;17.82
70198;BME280;57582;-34.876;138.628;2024-02-21T01:05:31;100236;;;35.93;17.64
70198;BME280;57582;-34.876;138.628;2024-02-21T01:08:29;100227;;;36.04;17.73
70198;BME280;57582;-34.876;138.628;2024-02-21T01:11:29;100227;;;36.10;17.90
70198;BME280;57582;-34.876;138.628;2024-02-21T01:14:29;100226;;;36.26;17.45
70198;BME280;57582;-34.876;138.628;2024-02-21T01:17:33;100218;;;36.39;17.42
70198;BME280;57582;-34.876;138.628;2024-02-21T01:20:29;100212;;;36.60;16.60
70198;BME280;57582;-34.876;138.628;2024-02-21T01:23:29;100219;;;36.76;19.96
70198;BME280;57582;-34.876;138.628;2024-02-21T01:26:29;100221;;;36.59;20.74
70198;BME280;57582;-34.876;138.628;2024-02-21T01:29:32;100220;;;36.47;21.03
70198;BME280;57582;-34.876;138.628;2024-02-21T01:32:29;100218;;;36.13;21.23
70198;BME280;57582;-34.876;138.628;2024-02-21T01:35:29;100219;;;35.89;21.33
70198;BME280;57582;-34.876;138.628;2024-02-21T01:38:29;100225;;;35.81;21.61
70198;BME280;57582;-34.876;138.628;2024-02-21T01:41:30;100222;;;35.81;21.87
70198;BME280;57582;-34.876;138.628;2024-02-21T01:44:29;100214;;;35.84;21.43
70198;BME280;57582;-34.876;138.628;2024-02-21T01:47:29;100208;;;35.75;21.69
70198;BME280;57582;-34.876;138.628;2024-02-21T01:50:29;100210;;;35.69;21.72
70198;BME280;57582;-34.876;138.628;2024-02-21T01:53:32;100202;;;35.75;21.69
70198;BME280;57582;-34.876;138.628;2024-02-21T01:56:29;100202;;;35.68;21.63
70198;BME280;57582;-34.876;138.628;2024-02-21T01:59:29;100199;;;35.73;21.58
70198;BME280;57582;-34.876;138.628;2024-02-21T02:02:29;100196;;;35.90;21.41
70198;BME280;57582;-34.876;138.628;2024-02-21T02:05:30;100188;;;36.12;21.20
70198;BME280;57582;-34.876;138.628;2024-02-21T02:08:29;100188;;;36.39;20.30
70198;BME280;57582;-34.876;138.628;2024-02-21T02:11:31;100190;;;36.52;19.97
70198;BME280;57582;-34.876;138.628;2024-02-21T02:14:30;100190;;;36.54;19.58
70198;BME280;57582;-34.876;138.628;2024-02-21T02:17:31;100183;;;36.48;19.51
70198;BME280;57582;-34.876;138.628;2024-02-21T02:20:30;100185;;;36.42;19.49
70198;BME280;57582;-34.876;138.628;2024-02-21T02:23:30;100185;;;36.48;19.61
70198;BME280;57582;-34.876;138.628;2024-02-21T02:26:30;100177;;;36.44;19.71
70198;BME280;57582;-34.876;138.628;2024-02-21T02:29:32;100164;;;36.42;19.57
70198;BME280;57582;-34.876;138.628;2024-02-21T02:32:30;100167;;;36.54;19.44
70198;BME280;57582;-34.876;138.628;2024-02-21T02:35:30;100162;;;36.61;18.97
70198;BME280;57582;-34.876;138.628;2024-02-21T02:38:30;100155;;;36.69;18.44
70198;BME280;57582;-34.876;138.628;2024-02-21T02:41:34;100143;;;36.66;19.19
70198;BME280;57582;-34.876;138.628;2024-02-21T02:44:30;100141;;;36.76;19.08
70198;BME280;57582;-34.876;138.628;2024-02-21T02:47:30;100135;;;36.86;18.71
70198;BME280;57582;-34.876;138.628;2024-02-21T02:50:30;100124;;;36.72;18.82
70198;BME280;57582;-34.876;138.628;2024-02-21T02:53:30;100116;;;36.63;19.03
70198;BME280;57582;-34.876;138.628;2024-02-21T02:56:30;100108;;;36.73;18.70
70198;BME280;57582;-34.876;138.628;2024-02-21T02:59:30;100105;;;36.88;18.66
70198;BME280;57582;-34.876;138.628;2024-02-21T03:02:30;100102;;;36.93;18.54
70198;BME280;57582;-34.876;138.628;2024-02-21T03:05:32;100107;;;36.96;18.74
70198;BME280;57582;-34.876;138.628;2024-02-21T03:08:30;100097;;;37.04;18.54
70198;BME280;57582;-34.876;138.628;2024-02-21T03:11:30;100100;;;37.02;18.46
70198;BME280;57582;-34.876;138.628;2024-02-21T03:14:30;100096;;;37.05;18.40
70198;BME280;57582;-34.876;138.628;2024-02-21T03:17:30;100097;;;37.09;18.49
70198;BME280;57582;-34.876;138.628;2024-02-21T03:20:30;100088;;;36.91;18.79
70198;BME280;57582;-34.876;138.628;2024-02-21T03:23:30;100082;;;36.88;18.75
70198;BME280;57582;-34.876;138.628;2024-02-21T03:26:30;100078;;;36.85;18.59
70198;BME280;57582;-34.876;138.628;2024-02-21T03:29:32;100085;;;36.76;19.15
70198;BME280;57582;-34.876;138.628;2024-02-21T03:32:30;100085;;;36.83;19.05
70198;BME280;57582;-34.876;138.628;2024-02-21T03:35:30;100088;;;36.88;18.87
70198;BME280;57582;-34.876;138.628;2024-02-21T03:38:30;100085;;;36.76;18.88
70198;BME280;57582;-34.876;138.628;2024-02-21T03:41:30;100080;;;36.62;19.06
70198;BME280;57582;-34.876;138.628;2024-02-21T03:44:30;100089;;;36.62;19.10
70198;BME280;57582;-34.876;138.628;2024-02-21T03:47:30;100084;;;36.65;19.26
70198;BME280;57582;-34.876;138.628;2024-02-21T03:50:30;100086;;;36.70;18.92
70198;BME280;57582;-34.876;138.628;2024-02-21T03:53:30;100081;;;36.75;18.97
70198;BME280;57582;-34.876;138.628;2024-02-21T03:56:30;100077;;;36.78;18.79
70198;BME280;57582;-34.876;138.628;2024-02-21T03:59:30;100074;;;36.83;19.05
70198;BME280;57582;-34.876;138.628;2024-02-21T04:02:30;100062;;;36.84;18.45
70198;BME280;57582;-34.876;138.628;2024-02-21T04:05:30;100064;;;36.77;18.34
70198;BME280;57582;-34.876;138.628;2024-02-21T04:08:30;100062;;;36.81;18.75
70198;BME280;57582;-34.876;138.628;2024-02-21T04:11:30;100060;;;36.90;17.23
70198;BME280;57582;-34.876;138.628;2024-02-21T04:14:30;100050;;;36.92;17.59
70198;BME280;57582;-34.876;138.628;2024-02-21T04:17:31;100055;;;36.99;16.89
70198;BME280;57582;-34.876;138.628;2024-02-21T04:20:30;100055;;;37.14;17.36
70198;BME280;57582;-34.876;138.628;2024-02-21T04:23:30;100050;;;37.06;16.96
70198;BME280;57582;-34.876;138.628;2024-02-21T04:26:30;100052;;;37.21;16.76
70198;BME280;57582;-34.876;138.628;2024-02-21T04:29:30;100053;;;37.18;17.18
70198;BME280;57582;-34.876;138.628;2024-02-21T04:32:30;100055;;;37.16;16.82
70198;BME280;57582;-34.876;138.628;2024-02-21T04:35:30;100052;;;37.21;17.05
70198;BME280;57582;-34.876;138.628;2024-02-21T04:38:30;100046;;;37.24;16.04
70198;BME280;57582;-34.876;138.628;2024-02-21T04:41:31;100041;;;37.29;15.83
70198;BME280;57582;-34.876;138.628;2024-02-21T04:44:30;100033;;;37.48;15.58
70198;BME280;57582;-34.876;138.628;2024-02-21T04:47:30;100041;;;37.70;15.38
70198;BME280;57582;-34.876;138.628;2024-02-21T04:50:30;100039;;;37.88;15.54
70198;BME280;57582;-34.876;138.628;2024-02-21T04:53:32;100025;;;38.04;15.85
70198;BME280;57582;-34.876;138.628;2024-02-21T04:56:30;100037;;;38.14;15.62
70198;BME280;57582;-34.876;138.628;2024-02-21T04:59:30;100031;;;38.37;15.09
70198;BME280;57582;-34.876;138.628;2024-02-21T05:02:30;100028;;;38.53;14.94
70198;BME280;57582;-34.876;138.628;2024-02-21T05:05:33;100027;;;38.29;15.46
70198;BME280;57582;-34.876;138.628;2024-02-21T05:08:30;100024;;;38.29;15.08
70198;BME280;57582;-34.876;138.628;2024-02-21T05:11:30;100021;;;38.25;14.96
70198;BME280;57582;-34.876;138.628;2024-02-21T05:14:30;100020;;;38.35;15.32
70198;BME280;57582;-34.876;138.628;2024-02-21T05:17:30;100022;;;38.48;15.23
70198;BME280;57582;-34.876;138.628;2024-02-21T05:20:30;100011;;;38.35;15.62
70198;BME280;57582;-34.876;138.628;2024-02-21T05:23:30;100017;;;38.35;15.50
70198;BME280;57582;-34.876;138.628;2024-02-21T05:26:30;100006;;;38.42;15.90
70198;BME280;57582;-34.876;138.628;2024-02-21T05:29:32;100000;;;38.58;15.63
70198;BME280;57582;-34.876;138.628;2024-02-21T05:32:30;99992;;;38.72;15.75
70198;BME280;57582;-34.876;138.628;2024-02-21T05:35:30;99997;;;38.71;15.67
70198;BME280;57582;-34.876;138.628;2024-02-21T05:38:30;99998;;;38.62;15.94
70198;BME280;57582;-34.876;138.628;2024-02-21T05:41:30;100004;;;38.62;16.29
70198;BME280;57582;-34.876;138.628;2024-02-21T05:44:30;99993;;;38.59;16.37
70198;BME280;57582;-34.876;138.628;2024-02-21T05:47:30;100001;;;38.62;16.50
70198;BME280;57582;-34.876;138.628;2024-02-21T05:50:30;99989;;;38.55;16.49
70198;BME280;57582;-34.876;138.628;2024-02-21T05:53:31;99981;;;38.55;16.40
70198;BME280;57582;-34.876;138.628;2024-02-21T05:56:30;99984;;;38.24;17.36
70198;BME280;57582;-34.876;138.628;2024-02-21T05:59:30;99977;;;38.18;17.18
70198;BME280;57582;-34.876;138.628;2024-02-21T06:02:30;99974;;;38.29;17.10
70198;BME280;57582;-34.876;138.628;2024-02-21T06:05:36;99969;;;38.40;17.03
70198;BME280;57582;-34.876;138.628;2024-02-21T06:08:30;99979;;;38.38;17.47
70198;BME280;57582;-34.876;138.628;2024-02-21T06:11:30;99968;;;38.45;17.48
70198;BME280;57582;-34.876;138.628;2024-02-21T06:14:30;99972;;;38.45;17.74
70198;BME280;57582;-34.876;138.628;2024-02-21T06:17:31;99979;;;38.22;17.92
70198;BME280;57582;-34.876;138.628;2024-02-21T06:20:30;99982;;;38.13;18.06
70198;BME280;57582;-34.876;138.628;2024-02-21T06:23:30;99975;;;38.16;18.61
70198;BME280;57582;-34.876;138.628;2024-02-21T06:26:30;99976;;;38.15;18.87
70198;BME280;57582;-34.876;138.628;2024-02-21T06:29:32;99972;;;38.04;19.03
70198;BME280;57582;-34.876;138.628;2024-02-21T06:32:30;99964;;;37.92;19.14
70198;BME280;57582;-34.876;138.628;2024-02-21T06:35:30;99965;;;37.87;19.42
70198;BME280;57582;-34.876;138.628;2024-02-21T06:38:30;99970;;;37.78;19.94
70198;BME280;57582;-34.876;138.628;2024-02-21T06:41:32;99960;;;37.80;19.85
70198;BME280;57582;-34.876;138.628;2024-02-21T06:44:30;99972;;;37.76;19.98
70198;BME280;57582;-34.876;138.628;2024-02-21T06:47:30;99967;;;37.76;20.14
70198;BME280;57582;-34.876;138.628;2024-02-21T06:50:30;99971;;;37.68;20.25
70198;BME280;57582;-34.876;138.628;2024-02-21T06:53:35;99968;;;37.52;20.82
70198;BME280;57582;-34.876;138.628;2024-02-21T06:56:30;99970;;;37.54;21.07
70198;BME280;57582;-34.876;138.628;2024-02-21T06:59:30;99968;;;37.49;21.25
70198;BME280;57582;-34.876;138.628;2024-02-21T07:02:30;99959;;;37.42;21.14
70198;BME280;57582;-34.876;138.628;2024-02-21T07:05:31;99963;;;37.25;21.55
70198;BME280;57582;-34.876;138.628;2024-02-21T07:08:30;99963;;;37.22;21.63
70198;BME280;57582;-34.876;138.628;2024-02-21T07:11:30;99953;;;37.19;21.65
70198;BME280;57582;-34.876;138.628;2024-02-21T07:14:32;99956;;;37.21;21.84
70198;BME280;57582;-34.876;138.628;2024-02-21T07:17:33;99953;;;37.22;21.93
70198;BME280;57582;-34.876;138.628;2024-02-21T07:20:30;99955;;;37.29;22.00
70198;BME280;57582;-34.876;138.628;2024-02-21T07:23:30;99958;;;37.28;22.24
70198;BME280;57582;-34.876;138.628;2024-02-21T07:26:31;99953;;;37.33;22.23
70198;BME280;57582;-34.876;138.628;2024-02-21T07:29:31;99951;;;37.39;21.98
70198;BME280;57582;-34.876;138.628;2024-02-21T07:32:30;99951;;;37.30;22.24
70198;BME280;57582;-34.876;138.628;2024-02-21T07:35:30;99946;;;37.16;22.25
70198;BME280;57582;-34.876;138.628;2024-02-21T07:38:30;99950;;;37.08;22.43
70198;BME280;57582;-34.876;138.628;2024-02-21T07:41:33;99953;;;37.03;22.57
70198;BME280;57582;-34.876;138.628;2024-02-21T07:44:31;99959;;;36.98;22.58
70198;BME280;57582;-34.876;138.628;2024-02-21T07:47:30;99958;;;36.86;22.86
70198;BME280;57582;-34.876;138.628;2024-02-21T07:50:30;99965;;;36.67;22.84
70198;BME280;57582;-34.876;138.628;2024-02-21T07:53:31;99972;;;36.54;22.73
70198;BME280;57582;-34.876;138.628;2024-02-21T07:56:30;99963;;;36.52;23.01
70198;BME280;57582;-34.876;138.628;2024-02-21T07:59:30;99959;;;36.46;23.27
70198;BME280;57582;-34.876;138.628;2024-02-21T08:02:30;99971;;;36.43;23.70
70198;BME280;57582;-34.876;138.628;2024-02-21T08:05:33;99970;;;36.36;23.77
70198;BME280;57582;-34.876;138.628;2024-02-21T08:08:30;99961;;;36.27;23.74
70198;BME280;57582;-34.876;138.628;2024-02-21T08:11:30;99969;;;36.26;24.10
70198;BME280;57582;-34.876;138.628;2024-02-21T08:14:30;99974;;;36.03;24.14
70198;BME280;57582;-34.876;138.628;2024-02-21T08:17:32;99968;;;35.89;24.45
70198;BME280;57582;-34.876;138.628;2024-02-21T08:20:30;99972;;;35.78;24.47
70198;BME280;57582;-34.876;138.628;2024-02-21T08:29:31;99966;;;35.47;25.01
70198;BME280;57582;-34.876;138.628;2024-02-21T08:38:30;99969;;;35.16;25.62
70198;BME280;57582;-34.876;138.628;2024-02-21T08:41:33;99966;;;35.09;25.80
70198;BME280;57582;-34.876;138.628;2024-02-21T08:44:30;99968;;;35.03;26.07
70198;BME280;57582;-34.876;138.628;2024-02-21T08:47:30;99978;;;34.89;26.07
70198;BME280;57582;-34.876;138.628;2024-02-21T08:50:30;99981;;;34.83;26.12
70198;BME280;57582;-34.876;138.628;2024-02-21T08:53:31;100001;;;34.75;26.26
70198;BME280;57582;-34.876;138.628;2024-02-21T08:56:30;100001;;;34.58;25.78
70198;BME280;57582;-34.876;138.628;2024-02-21T08:59:30;99992;;;34.44;25.65
70198;BME280;57582;-34.876;138.628;2024-02-21T09:02:30;99998;;;34.39;25.65
70198;BME280;57582;-34.876;138.628;2024-02-21T09:05:32;100001;;;34.39;25.69
70198;BME280;57582;-34.876;138.628;2024-02-21T09:08:30;99999;;;34.36;25.60
70198;BME280;57582;-34.876;138.628;2024-02-21T09:11:30;100004;;;34.32;25.27
70198;BME280;57582;-34.876;138.628;2024-02-21T09:14:30;100006;;;34.21;24.75
70198;BME280;57582;-34.876;138.628;2024-02-21T09:17:31;99998;;;34.15;24.79
70198;BME280;57582;-34.876;138.628;2024-02-21T09:20:30;99998;;;34.11;24.82
70198;BME280;57582;-34.876;138.628;2024-02-21T09:23:30;100008;;;34.07;25.05
70198;BME280;57582;-34.876;138.628;2024-02-21T09:26:30;100007;;;33.96;25.21
70198;BME280;57582;-34.876;138.628;2024-02-21T09:29:32;100012;;;33.87;25.40
70198;BME280;57582;-34.876;138.628;2024-02-21T09:32:30;100012;;;33.82;25.54
70198;BME280;57582;-34.876;138.628;2024-02-21T09:35:30;100020;;;33.77;25.68
70198;BME280;57582;-34.876;138.628;2024-02-21T09:38:31;100021;;;33.71;26.00
70198;BME280;57582;-34.876;138.628;2024-02-21T09:41:33;100027;;;33.64;26.33
70198;BME280;57582;-34.876;138.628;2024-02-21T09:44:33;100037;;;33.56;26.62
70198;BME280;57582;-34.876;138.628;2024-02-21T09:47:34;100041;;;33.45;26.87
70198;BME280;57582;-34.876;138.628;2024-02-21T09:50:30;100041;;;33.28;27.10
70198;BME280;57582;-34.876;138.628;2024-02-21T09:53:31;100037;;;33.15;27.23
70198;BME280;57582;-34.876;138.628;2024-02-21T09:56:30;100040;;;33.07;27.22
70198;BME280;57582;-34.876;138.628;2024-02-21T09:59:31;100044;;;33.02;27.30
70198;BME280;57582;-34.876;138.628;2024-02-21T10:02:30;100052;;;33.02;27.23
70198;BME280;57582;-34.876;138.628;2024-02-21T10:05:31;100062;;;32.97;27.15
70198;BME280;57582;-34.876;138.628;2024-02-21T10:08:30;100070;;;32.90;26.77
70198;BME280;57582;-34.876;138.628;2024-02-21T10:11:30;100071;;;32.81;26.79
70198;BME280;57582;-34.876;138.628;2024-02-21T10:14:30;100075;;;32.61;26.11
70198;BME280;57582;-34.876;138.628;2024-02-21T10:17:32;100072;;;32.53;26.22
70198;BME280;57582;-34.876;138.628;2024-02-21T10:20:30;100079;;;32.48;26.26
70198;BME280;57582;-34.876;138.628;2024-02-21T10:23:47;100084;;;32.37;26.61
70198;BME280;57582;-34.876;138.628;2024-02-21T10:26:30;100079;;;32.31;26.81
70198;BME280;57582;-34.876;138.628;2024-02-21T10:29:33;100077;;;32.28;26.95
70198;BME280;57582;-34.876;138.628;2024-02-21T10:32:30;100077;;;32.28;27.15
70198;BME280;57582;-34.876;138.628;2024-02-21T10:35:31;100079;;;32.26;27.37
70198;BME280;57582;-34.876;138.628;2024-02-21T10:38:30;100072;;;32.18;27.44
70198;BME280;57582;-34.876;138.628;2024-02-21T10:41:31;100083;;;32.13;27.51
70198;BME280;57582;-34.876;138.628;2024-02-21T10:44:31;100091;;;32.09;27.56
70198;BME280;57582;-34.876;138.628;2024-02-21T10:47:31;100091;;;32.04;27.79
70198;BME280;57582;-34.876;138.628;2024-02-21T10:50:31;100101;;;31.87;28.16
70198;BME280;57582;-34.876;138.628;2024-02-21T10:53:41;100091;;;31.80;28.33
70198;BME280;57582;-34.876;138.628;2024-02-21T10:56:31;100105;;;31.80;28.36
70198;BME280;57582;-34.876;138.628;2024-02-21T10:59:31;100098;;;31.74;28.46
70198;BME280;57582;-34.876;138.628;2024-02-21T11:02:30;100109;;;31.67;28.62
70198;BME280;57582;-34.876;138.628;2024-02-21T11:05:31;100120;;;31.50;29.11
70198;BME280;57582;-34.876;138.628;2024-02-21T11:08:30;100130;;;31.39;29.25
70198;BME280;57582;-34.876;138.628;2024-02-21T11:11:34;100133;;;31.34;29.49
70198;BME280;57582;-34.876;138.628;2024-02-21T11:14:31;100121;;;31.24;29.69
70198;BME280;57582;-34.876;138.628;2024-02-21T11:17:34;100123;;;31.16;30.26
70198;BME280;57582;-34.876;138.628;2024-02-21T11:20:32;100116;;;31.10;30.36
70198;BME280;57582;-34.876;138.628;2024-02-21T11:23:31;100114;;;31.05;30.30
70198;BME280;57582;-34.876;138.628;2024-02-21T11:26:31;100107;;;30.98;30.34
70198;BME280;57582;-34.876;138.628;2024-02-21T11:29:31;100113;;;30.95;30.33
70198;BME280;57582;-34.876;138.628;2024-02-21T11:32:31;100099;;;30.83;30.64
70198;BME280;57582;-34.876;138.628;2024-02-21T11:35:32;100113;;;30.76;30.76
70198;BME280;57582;-34.876;138.628;2024-02-21T11:38:31;100110;;;30.69;30.83
70198;BME280;57582;-34.876;138.628;2024-02-21T11:41:31;100098;;;30.63;31.01
70198;BME280;57582;-34.876;138.628;2024-02-21T11:44:31;100094;;;30.55;31.53
70198;BME280;57582;-34.876;138.628;2024-02-21T11:47:31;100087;;;30.61;31.42
70198;BME280;57582;-34.876;138.628;2024-02-21T11:50:31;100092;;;30.56;31.88
70198;BME280;57582;-34.876;138.628;2024-02-21T11:53:32;100087;;;30.72;31.28
70198;BME280;57582;-34.876;138.628;2024-02-21T11:56:31;100089;;;30.85;31.21
70198;BME280;57582;-34.876;138.628;2024-02-21T11:59:31;100080;;;30.88;31.06
70198;BME280;57582;-34.876;138.628;2024-02-21T12:02:31;100079;;;30.91;31.07
70198;BME280;57582;-34.876;138.628;2024-02-21T12:05:33;100082;;;30.95;31.00
70198;BME280;57582;-34.876;138.628;2024-02-21T12:08:46;100080;;;30.88;31.32
70198;BME280;57582;-34.876;138.628;2024-02-21T12:11:31;100085;;;30.71;31.68
70198;BME280;57582;-34.876;138.628;2024-02-21T12:14:31;100082;;;30.72;31.73
70198;BME280;57582;-34.876;138.628;2024-02-21T12:17:36;100084;;;30.80;31.55
70198;BME280;57582;-34.876;138.628;2024-02-21T12:20:31;100101;;;30.77;31.51
70198;BME280;57582;-34.876;138.628;2024-02-21T12:23:31;100106;;;30.65;32.18
70198;BME280;57582;-34.876;138.628;2024-02-21T12:26:31;100108;;;30.54;32.30
70198;BME280;57582;-34.876;138.628;2024-02-21T12:29:31;100105;;;30.50;32.48
70198;BME280;57582;-34.876;138.628;2024-02-21T12:32:31;100104;;;30.48;32.85
70198;BME280;57582;-34.876;138.628;2024-02-21T12:35:31;100112;;;30.50;33.33
70198;BME280;57582;-34.876;138.628;2024-02-21T12:38:31;100109;;;30.54;34.47
70198;BME280;57582;-34.876;138.628;2024-02-21T12:41:32;100116;;;30.57;36.10
70198;BME280;57582;-34.876;138.628;2024-02-21T12:44:31;100111;;;30.63;36.89
70198;BME280;57582;-34.876;138.628;2024-02-21T12:47:31;100109;;;30.61;38.42
70198;BME280;57582;-34.876;138.628;2024-02-21T12:50:31;100102;;;30.57;38.60
70198;BME280;57582;-34.876;138.628;2024-02-21T12:53:33;100102;;;30.59;39.18
70198;BME280;57582;-34.876;138.628;2024-02-21T12:56:31;100095;;;30.56;39.69
70198;BME280;57582;-34.876;138.628;2024-02-21T12:59:31;100094;;;30.45;39.71
70198;BME280;57582;-34.876;138.628;2024-02-21T13:02:31;100087;;;30.35;40.26
70198;BME280;57582;-34.876;138.628;2024-02-21T13:05:31;100088;;;30.21;40.52
70198;BME280;57582;-34.876;138.628;2024-02-21T13:08:31;100086;;;30.17;40.62
70198;BME280;57582;-34.876;138.628;2024-02-21T13:11:31;100077;;;30.08;40.65
70198;BME280;57582;-34.876;138.628;2024-02-21T13:14:31;100068;;;29.95;41.68
70198;BME280;57582;-34.876;138.628;2024-02-21T13:17:32;100071;;;29.87;41.56
70198;BME280;57582;-34.876;138.628;2024-02-21T13:20:31;100067;;;29.88;41.27
70198;BME280;57582;-34.876;138.628;2024-02-21T13:23:31;100058;;;29.82;41.40
70198;BME280;57582;-34.876;138.628;2024-02-21T13:26:31;100048;;;29.69;41.14
70198;BME280;57582;-34.876;138.628;2024-02-21T13:29:32;100044;;;29.62;40.63
70198;BME280;57582;-34.876;138.628;2024-02-21T13:32:31;100048;;;29.66;40.51
70198;BME280;57582;-34.876;138.628;2024-02-21T13:35:31;100045;;;29.62;40.35
70198;BME280;57582;-34.876;138.628;2024-02-21T13:38:31;100044;;;29.57;40.35
70198;BME280;57582;-34.876;138.628;2024-02-21T13:41:31;100037;;;29.51;40.06
70198;BME280;57582;-34.876;138.628;2024-02-21T13:44:31;100041;;;29.38;40.16
70198;BME280;57582;-34.876;138.628;2024-02-21T13:47:31;100037;;;29.22;40.28
70198;BME280;57582;-34.876;138.628;2024-02-21T13:50:31;100042;;;29.20;40.26
70198;BME280;57582;-34.876;138.628;2024-02-21T13:53:33;100039;;;29.17;40.42
70198;BME280;57582;-34.876;138.628;2024-02-21T13:56:31;100039;;;29.11;40.42
70198;BME280;57582;-34.876;138.628;2024-02-21T13:59:31;100031;;;29.03;40.03
70198;BME280;57582;-34.876;138.628;2024-02-21T14:02:31;100025;;;29.02;39.69
70198;BME280;57582;-34.876;138.628;2024-02-21T14:05:33;100028;;;29.03;39.46
70198;BME280;57582;-34.876;138.628;2024-02-21T14:08:31;100028;;;28.99;38.82
70198;BME280;57582;-34.876;138.628;2024-02-21T14:11:31;100033;;;29.01;38.56
70198;BME280;57582;-34.876;138.628;2024-02-21T14:14:31;100024;;;29.04;38.62
70198;BME280;57582;-34.876;138.628;2024-02-21T14:17:31;100015;;;29.01;38.12
70198;BME280;57582;-34.876;138.628;2024-02-21T14:20:31;100022;;;28.94;38.16
70198;BME280;57582;-34.876;138.628;2024-02-21T14:23:31;100025;;;28.77;37.99
70198;BME280;57582;-34.876;138.628;2024-02-21T14:26:31;100018;;;28.64;38.25
70198;BME280;57582;-34.876;138.628;2024-02-21T14:29:32;100019;;;28.58;38.18
70198;BME280;57582;-34.876;138.628;2024-02-21T14:32:31;100018;;;28.49;38.22
70198;BME280;57582;-34.876;138.628;2024-02-21T14:35:31;100005;;;28.36;38.48
70198;BME280;57582;-34.876;138.628;2024-02-21T14:38:31;100005;;;28.28;38.98
70198;BME280;57582;-34.876;138.628;2024-02-21T14:41:31;100005;;;28.31;38.91
70198;BME280;57582;-34.876;138.628;2024-02-21T14:44:31;100006;;;28.27;38.62
70198;BME280;57582;-34.876;138.628;2024-02-21T14:47:31;100005;;;28.23;39.03
70198;BME280;57582;-34.876;138.628;2024-02-21T14:50:31;100007;;;28.26;39.17
70198;BME280;57582;-34.876;138.628;2024-02-21T14:53:32;99997;;;28.38;38.93
70198;BME280;57582;-34.876;138.628;2024-02-21T14:56:31;99991;;;28.51;38.25
70198;BME280;57582;-34.876;138.628;2024-02-21T14:59:31;99989;;;28.64;38.02
70198;BME280;57582;-34.876;138.628;2024-02-21T15:02:31;99990;;;28.79;37.65
70198;BME280;57582;-34.876;138.628;2024-02-21T15:05:34;99991;;;28.97;37.28
70198;BME280;57582;-34.876;138.628;2024-02-21T15:08:31;99989;;;28.98;37.21
70198;BME280;57582;-34.876;138.628;2024-02-21T15:11:31;99987;;;29.05;36.98
70198;BME280;57582;-34.876;138.628;2024-02-21T15:14:31;99988;;;29.07;36.99
70198;BME280;57582;-34.876;138.628;2024-02-21T15:17:31;99989;;;28.98;37.00
70198;BME280;57582;-34.876;138.628;2024-02-21T15:20:31;99985;;;28.97;37.03
70198;BME280;57582;-34.876;138.628;2024-02-21T15:23:31;99982;;;28.93;37.06
70198;BME280;57582;-34.876;138.628;2024-02-21T15:26:31;99978;;;28.70;37.56
70198;BME280;57582;-34.876;138.628;2024-02-21T15:29:35;99968;;;28.59;37.95
70198;BME280;57582;-34.876;138.628;2024-02-21T15:32:31;99959;;;28.48;38.10
70198;BME280;57582;-34.876;138.628;2024-02-21T15:35:31;99954;;;28.16;38.19
70198;BME280;57582;-34.876;138.628;2024-02-21T15:38:31;99946;;;27.66;39.14
70198;BME280;57582;-34.876;138.628;2024-02-21T15:41:32;99941;;;27.63;39.23
70198;BME280;57582;-34.876;138.628;2024-02-21T15:44:31;99930;;;27.59;39.28
70198;BME280;57582;-34.876;138.628;2024-02-21T15:47:31;99925;;;27.34;39.69
70198;BME280;57582;-34.876;138.628;2024-02-21T15:50:31;99922;;;26.95;40.47
70198;BME280;57582;-34.876;138.628;2024-02-21T15:53:32;99928;;;26.60;41.16
70198;BME280;57582;-34.876;138.628;2024-02-21T15:56:31;99932;;;26.69;40.95